createdAt,value
2023-04-03T00:00:22.334Z,56.04
2023-04-03T00:02:51.605Z,56.12
2023-04-03T00:05:19.340Z,56.38
2023-04-03T00:07:47.053Z,56.59
2023-04-03T00:10:15.926Z,56.53
2023-04-03T00:12:43.720Z,56.73
2023-04-03T00:15:11.804Z,56.99
2023-04-03T00:17:39.606Z,57.16
2023-04-03T00:20:10.012Z,57.16
2023-04-03T00:22:37.732Z,57.56
2023-04-03T00:25:06.248Z,57.33
2023-04-03T00:27:34.029Z,57.90
2023-04-03T00:30:01.756Z,57.76
2023-04-03T00:32:29.463Z,58.12
2023-04-03T00:34:57.199Z,58.40
2023-04-03T00:37:26.331Z,58.34
2023-04-03T00:39:54.055Z,58.16
2023-04-03T00:42:21.724Z,58.75
2023-04-03T00:45:28.559Z,58.97
2023-04-03T00:47:57.028Z,58.93
2023-04-03T00:50:25.377Z,59.12
2023-04-03T00:52:54.901Z,59.13
2023-04-03T00:55:22.917Z,59.59
2023-04-03T00:57:51.365Z,59.52
2023-04-03T01:00:21.879Z,59.66
2023-04-03T01:02:49.578Z,59.35
2023-04-03T01:05:18.557Z,59.74
2023-04-03T01:07:46.705Z,59.92
2023-04-03T01:10:18.157Z,59.71
2023-04-03T01:12:47.371Z,60.06
2023-04-03T01:15:17.574Z,59.98
2023-04-03T01:17:46.703Z,60.17
2023-04-03T01:21:11.343Z,59.94
2023-04-03T01:24:02.293Z,60.54
2023-04-03T01:26:32.025Z,60.47
2023-04-03T01:29:01.400Z,60.77
2023-04-03T01:31:30.620Z,60.87
2023-04-03T01:34:00.439Z,61.08
2023-04-03T01:36:30.697Z,60.80
2023-04-03T01:39:01.180Z,60.89
2023-04-03T01:41:29.919Z,61.08
2023-04-03T01:43:57.647Z,60.90
2023-04-03T01:46:25.334Z,61.09
2023-04-03T01:48:53.101Z,61.02
2023-04-03T01:51:22.224Z,61.37
2023-04-03T01:53:49.929Z,61.27
2023-04-03T01:56:17.603Z,61.23
2023-04-03T01:58:45.372Z,61.41
2023-04-03T02:01:13.128Z,61.51
2023-04-03T02:03:41.291Z,61.35
2023-04-03T02:06:09.080Z,61.24
2023-04-03T02:08:38.214Z,61.54
2023-04-03T02:11:06.024Z,61.46
2023-04-03T02:13:33.775Z,61.24
2023-04-03T02:16:01.743Z,61.39
2023-04-03T02:18:29.454Z,61.29
2023-04-03T02:20:57.095Z,61.19
2023-04-03T02:23:24.806Z,61.13
2023-04-03T02:25:53.928Z,61.02
2023-04-03T02:28:21.648Z,61.09
2023-04-03T02:30:49.449Z,60.92
2023-04-03T02:33:17.116Z,61.13
2023-04-03T02:35:44.894Z,60.89
2023-04-03T02:38:12.658Z,60.86
2023-04-03T02:40:40.331Z,60.97
2023-04-03T02:43:09.393Z,61.28
2023-04-03T02:45:37.143Z,61.07
2023-04-03T02:48:05.426Z,61.02
2023-04-03T02:50:33.313Z,61.19
2023-04-03T02:53:01.031Z,61.10
2023-04-03T02:55:28.786Z,61.27
2023-04-03T02:57:56.455Z,60.99
2023-04-03T03:00:25.591Z,61.14
2023-04-03T03:02:53.318Z,61.30
2023-04-03T03:05:21.065Z,61.20
2023-04-03T03:07:48.799Z,61.47
2023-04-03T03:10:16.796Z,61.49
2023-04-03T03:12:44.535Z,61.41
2023-04-03T03:15:13.060Z,61.33
2023-04-03T03:17:42.256Z,61.42
2023-04-03T03:20:10.758Z,61.21
2023-04-03T03:22:38.575Z,61.23
2023-04-03T03:25:07.041Z,61.42
2023-04-03T03:27:34.847Z,61.43
2023-04-03T03:30:02.545Z,61.33
2023-04-03T03:32:30.545Z,61.40
2023-04-03T03:34:59.734Z,61.21
2023-04-03T03:37:28.030Z,61.18
2023-04-03T03:39:55.773Z,61.21
2023-04-03T03:42:23.464Z,61.33
2023-04-03T03:44:51.179Z,61.41
2023-04-03T03:47:18.883Z,61.47
2023-04-03T03:49:46.663Z,61.54
2023-04-03T03:52:15.713Z,61.38
2023-04-03T03:54:43.445Z,62.09
2023-04-03T03:57:11.827Z,61.43
2023-04-03T03:59:41.227Z,61.64
2023-04-03T04:02:08.985Z,61.68
2023-04-03T04:04:36.790Z,61.88
2023-04-03T04:07:04.965Z,62.13
2023-04-03T04:09:34.117Z,62.05
2023-04-03T04:12:01.869Z,61.97
2023-04-03T04:14:29.632Z,61.81
2023-04-03T04:16:57.474Z,62.32
2023-04-03T04:19:25.271Z,62.16
2023-04-03T04:21:52.995Z,62.06
2023-04-03T04:24:20.742Z,62.08
2023-04-03T04:26:49.836Z,62.17
2023-04-03T04:29:17.594Z,61.85
2023-04-03T04:31:45.341Z,62.02
2023-04-03T04:34:13.902Z,61.84
2023-04-03T04:36:42.021Z,62.06
2023-04-03T04:39:10.008Z,62.36
2023-04-03T04:41:37.762Z,62.12
2023-04-03T04:44:07.001Z,62.10
2023-04-03T04:46:34.790Z,62.03
2023-04-03T04:49:02.537Z,62.20
2023-04-03T04:51:35.196Z,62.26
2023-04-03T04:54:09.071Z,62.40
2023-04-03T04:56:36.873Z,62.32
2023-04-03T04:59:05.981Z,62.19
2023-04-03T05:01:33.762Z,62.54
2023-04-03T05:04:01.524Z,62.76
2023-04-03T05:06:31.106Z,62.53
2023-04-03T05:08:58.862Z,62.91
2023-04-03T05:11:26.850Z,63.08
2023-04-03T05:13:54.587Z,63.00
2023-04-03T05:16:23.756Z,63.13
2023-04-03T05:18:51.694Z,62.96
2023-04-03T05:21:20.046Z,62.91
2023-04-03T05:23:47.822Z,62.78
2023-04-03T05:26:15.695Z,63.26
2023-04-03T05:28:43.375Z,63.20
2023-04-03T05:31:11.228Z,63.26
2023-04-03T05:33:40.441Z,63.08
2023-04-03T05:36:09.018Z,63.11
2023-04-03T05:38:37.074Z,63.29
2023-04-03T05:41:04.798Z,63.03
2023-04-03T05:43:32.503Z,63.17
2023-04-03T05:46:00.468Z,63.49
2023-04-03T05:48:28.267Z,63.04
2023-04-03T05:50:57.398Z,62.92
2023-04-03T05:53:28.277Z,63.07
2023-04-03T05:55:55.948Z,63.46
2023-04-03T05:58:23.595Z,63.25
2023-04-03T06:00:51.279Z,63.32
2023-04-03T06:03:19.057Z,63.26
2023-04-03T06:05:47.325Z,63.16
2023-04-03T06:08:16.548Z,63.34
2023-04-03T06:10:44.214Z,63.21
2023-04-03T06:13:11.963Z,63.47
2023-04-03T06:15:40.687Z,63.36
2023-04-03T06:18:09.265Z,64.17
2023-04-03T06:20:37.332Z,63.02
2023-04-03T06:23:07.353Z,63.55
2023-04-03T06:25:37.597Z,63.77
2023-04-03T06:28:05.338Z,63.00
2023-04-03T06:30:33.096Z,63.61
2023-04-03T06:33:00.990Z,63.50
2023-04-03T06:35:29.621Z,63.36
2023-04-03T06:37:57.329Z,62.78
2023-04-03T06:40:27.157Z,62.11
2023-04-03T06:42:56.288Z,62.15
2023-04-03T06:45:25.719Z,61.63
2023-04-03T06:47:53.485Z,62.47
2023-04-03T06:50:21.780Z,62.26
2023-04-03T06:52:49.434Z,61.36
2023-04-03T06:55:17.358Z,62.16
2023-04-03T06:57:45.099Z,60.26
2023-04-03T07:00:15.814Z,59.72
2023-04-03T07:02:43.500Z,59.89
2023-04-03T07:05:11.579Z,60.59
2023-04-03T07:07:39.500Z,60.20
2023-04-03T07:10:08.791Z,60.02
2023-04-03T07:12:36.495Z,58.72
2023-04-03T07:15:04.846Z,58.31
2023-04-03T07:17:34.324Z,59.91
2023-04-03T07:20:02.199Z,57.72
2023-04-03T07:22:30.847Z,58.53
2023-04-03T07:24:59.947Z,58.38
2023-04-03T07:27:27.980Z,57.57
2023-04-03T07:29:57.269Z,56.87
2023-04-03T07:32:24.980Z,57.62
2023-04-03T07:34:54.095Z,55.87
2023-04-03T07:37:21.843Z,55.45
2023-04-03T07:39:49.646Z,55.20
2023-04-03T07:42:17.532Z,55.66
2023-04-03T07:44:45.381Z,55.25
2023-04-03T07:47:14.439Z,54.98
2023-04-03T07:49:42.496Z,53.71
2023-04-03T07:52:11.709Z,54.56
2023-04-03T07:54:39.434Z,53.56
2023-04-03T07:57:07.556Z,52.13
2023-04-03T07:59:35.465Z,54.07
2023-04-03T08:02:05.669Z,53.25
2023-04-03T08:04:33.689Z,53.13
2023-04-03T08:07:01.532Z,54.97
2023-04-03T08:09:30.737Z,56.74
2023-04-03T08:11:58.390Z,57.77
2023-04-03T08:14:26.364Z,52.16
2023-04-03T08:16:54.148Z,54.63
2023-04-03T08:19:26.621Z,54.19
2023-04-03T08:21:55.251Z,57.15
2023-04-03T08:24:23.103Z,50.22
2023-04-03T08:26:52.311Z,48.74
2023-04-03T08:29:20.385Z,49.21
2023-04-03T08:31:48.386Z,47.40
2023-04-03T08:34:16.152Z,48.02
2023-04-03T08:36:44.525Z,48.28
2023-04-03T08:39:13.108Z,48.25
2023-04-03T08:41:43.509Z,47.43
2023-04-03T08:44:23.999Z,46.79
2023-04-03T08:47:09.763Z,46.33
2023-04-03T08:49:41.036Z,46.33
2023-04-03T08:52:13.753Z,45.24
2023-04-03T08:54:51.721Z,47.00
2023-04-03T08:57:22.162Z,44.76
2023-04-03T08:59:51.344Z,44.53
2023-04-03T09:02:27.449Z,46.28
2023-04-03T09:04:55.290Z,43.03
2023-04-03T09:07:28.019Z,41.90
2023-04-03T09:09:56.343Z,42.71
2023-04-03T09:12:27.740Z,40.38
2023-04-03T09:15:06.618Z,41.94
2023-04-03T09:17:43.037Z,41.14
2023-04-03T09:20:20.860Z,40.55
2023-04-03T09:22:52.390Z,42.21
2023-04-03T09:25:23.497Z,40.02
2023-04-03T09:27:51.686Z,39.81
2023-04-03T09:30:22.732Z,41.74
2023-04-03T09:32:52.494Z,39.76
2023-04-03T09:35:29.917Z,40.61
2023-04-03T09:38:19.187Z,41.33
2023-04-03T09:40:47.918Z,41.36
2023-04-03T09:43:28.270Z,40.03
2023-04-03T09:45:59.160Z,41.30
2023-04-03T09:48:29.190Z,39.01
2023-04-03T09:51:02.328Z,40.46
2023-04-03T09:53:33.294Z,40.05
2023-04-03T09:56:01.798Z,39.57
2023-04-03T09:58:42.777Z,40.24
2023-04-03T10:01:31.288Z,38.14
2023-04-03T10:04:11.322Z,38.92
2023-04-03T10:06:41.661Z,37.95
2023-04-03T10:09:22.146Z,39.08
2023-04-03T10:12:02.148Z,38.34
2023-04-03T10:14:30.818Z,38.39
2023-04-03T10:17:05.634Z,38.67
2023-04-03T10:19:39.182Z,38.72
2023-04-03T10:22:15.601Z,37.62
2023-04-03T10:24:50.902Z,37.48
2023-04-03T10:27:21.137Z,38.76
2023-04-03T10:29:53.264Z,39.44
2023-04-03T10:32:33.085Z,38.35
2023-04-03T10:35:05.780Z,38.90
2023-04-03T10:37:50.275Z,38.57
2023-04-03T10:40:27.004Z,38.31
2023-04-03T10:43:00.482Z,37.15
2023-04-03T10:45:29.946Z,37.01
2023-04-03T10:48:04.992Z,38.57
2023-04-03T10:50:41.012Z,38.20
2023-04-03T10:53:16.430Z,38.21
2023-04-03T10:55:50.384Z,38.37
2023-04-03T10:58:23.348Z,38.86
2023-04-03T11:00:53.773Z,39.02
2023-04-03T11:03:29.730Z,36.67
2023-04-03T11:05:58.241Z,37.21
2023-04-03T11:08:29.612Z,38.79
2023-04-03T11:10:59.704Z,39.27
2023-04-03T11:13:31.993Z,38.40
2023-04-03T11:16:00.168Z,38.58
2023-04-03T11:18:33.480Z,38.56
2023-04-03T11:21:05.046Z,38.45
2023-04-03T11:23:45.771Z,40.00
2023-04-03T11:26:18.305Z,39.77
2023-04-03T11:28:47.256Z,37.85
2023-04-03T11:31:27.436Z,38.82
2023-04-03T11:34:06.119Z,38.03
2023-04-03T11:36:36.601Z,38.73
2023-04-03T11:39:16.774Z,38.24
2023-04-03T11:41:44.549Z,37.95
2023-04-03T11:44:35.032Z,37.54
2023-04-03T11:47:03.470Z,37.59
2023-04-03T11:50:02.114Z,37.43
2023-04-03T11:53:03.980Z,36.79
2023-04-03T11:56:02.934Z,36.28
2023-04-03T11:58:33.016Z,34.88
2023-04-03T12:01:08.998Z,38.06
2023-04-03T12:04:10.138Z,38.43
2023-04-03T12:06:54.084Z,38.00
2023-04-03T12:09:26.577Z,37.54
2023-04-03T12:11:54.947Z,37.42
2023-04-03T12:14:25.236Z,37.82
2023-04-03T12:16:54.803Z,34.81
2023-04-03T12:19:48.170Z,36.93
2023-04-03T12:22:21.751Z,37.89
2023-04-03T12:24:51.675Z,37.95
2023-04-03T12:27:26.259Z,36.19
2023-04-03T12:29:58.228Z,36.89
2023-04-03T12:32:58.929Z,37.68
2023-04-03T12:35:38.791Z,38.38
2023-04-03T12:38:35.741Z,36.60
2023-04-03T12:41:16.797Z,37.42
2023-04-03T12:43:56.673Z,36.44
2023-04-03T12:46:38.349Z,37.22
2023-04-03T12:49:17.428Z,38.43
2023-04-03T12:51:47.358Z,37.12
2023-04-03T12:54:19.240Z,36.66
2023-04-03T12:56:47.031Z,38.57
2023-04-03T12:59:18.016Z,39.16
2023-04-03T13:01:46.068Z,37.33
2023-04-03T13:04:14.513Z,37.00
2023-04-03T13:06:43.916Z,37.67
2023-04-03T13:09:23.838Z,38.48
2023-04-03T13:11:54.210Z,38.26
2023-04-03T13:14:23.379Z,37.63
2023-04-03T13:16:57.962Z,37.89
2023-04-03T13:19:29.158Z,38.83
2023-04-03T13:22:02.720Z,37.36
2023-04-03T13:24:34.632Z,37.60
2023-04-03T13:27:03.060Z,37.52
2023-04-03T13:29:33.725Z,37.07
2023-04-03T13:32:02.706Z,36.96
2023-04-03T13:34:32.618Z,37.67
2023-04-03T13:37:04.202Z,36.52
2023-04-03T13:39:34.482Z,35.86
2023-04-03T13:42:03.830Z,36.01
2023-04-03T13:44:36.226Z,36.25
2023-04-03T13:47:19.449Z,36.14
2023-04-03T13:49:48.558Z,36.73
2023-04-03T13:52:30.513Z,37.74
2023-04-03T13:55:05.798Z,36.59
2023-04-03T13:57:35.852Z,37.53
2023-04-03T14:00:22.764Z,38.83
2023-04-03T14:02:50.570Z,36.29
2023-04-03T14:05:22.171Z,36.13
2023-04-03T14:07:49.854Z,36.22
2023-04-03T14:10:19.095Z,35.67
2023-04-03T14:12:47.197Z,37.15
2023-04-03T14:15:20.756Z,36.62
2023-04-03T14:17:49.009Z,36.82
2023-04-03T14:20:18.342Z,37.26
2023-04-03T14:22:46.464Z,37.61
2023-04-03T14:25:14.298Z,35.39
2023-04-03T14:27:44.931Z,36.32
2023-04-03T14:30:17.707Z,36.24
2023-04-03T14:32:45.880Z,37.13
2023-04-03T14:35:13.629Z,37.63
2023-04-03T14:37:41.399Z,35.30
2023-04-03T14:40:10.996Z,35.94
2023-04-03T14:42:39.532Z,36.60
2023-04-03T14:45:10.718Z,37.01
2023-04-03T14:47:43.155Z,36.06
2023-04-03T14:50:15.540Z,35.51
2023-04-03T14:52:43.420Z,37.72
2023-04-03T14:55:21.104Z,36.83
2023-04-03T14:57:48.993Z,35.89
2023-04-03T15:00:20.086Z,36.53
2023-04-03T15:02:48.907Z,36.21
2023-04-03T15:05:17.982Z,35.06
2023-04-03T15:07:49.976Z,35.94
2023-04-03T15:10:20.395Z,35.67
2023-04-03T15:12:48.875Z,36.62
2023-04-03T15:15:20.759Z,37.11
2023-04-03T15:17:49.701Z,35.33
2023-04-03T15:20:19.210Z,35.29
2023-04-03T15:22:47.273Z,35.93
2023-04-03T15:25:15.149Z,35.66
2023-04-03T15:27:43.036Z,35.97
2023-04-03T15:30:16.606Z,35.05
2023-04-03T15:32:45.922Z,35.37
2023-04-03T15:35:13.833Z,35.88
2023-04-03T15:37:41.674Z,35.90
2023-04-03T15:40:10.457Z,37.66
2023-04-03T15:42:38.163Z,36.30
2023-04-03T15:45:06.699Z,34.98
2023-04-03T15:47:34.463Z,35.97
2023-04-03T15:50:06.919Z,35.98
2023-04-03T15:52:34.663Z,34.98
2023-04-03T15:55:02.357Z,35.90
2023-04-03T16:00:05.855Z,35.94
2023-04-03T16:02:33.705Z,34.62
2023-04-03T16:05:02.879Z,36.79
2023-04-03T16:07:30.568Z,36.07
2023-04-03T16:09:58.659Z,37.35
2023-04-03T16:12:26.347Z,36.59
2023-04-03T16:14:54.115Z,36.48
2023-04-03T16:17:21.778Z,36.17
2023-04-03T16:19:49.571Z,37.83
2023-04-03T16:22:18.693Z,36.47
2023-04-03T16:24:46.380Z,37.05
2023-04-03T16:27:14.075Z,36.90
2023-04-03T16:29:41.741Z,41.49
2023-04-03T16:32:09.853Z,39.46
2023-04-03T16:34:37.616Z,40.07
2023-04-03T16:37:05.460Z,39.67
2023-04-03T16:39:34.614Z,39.16
2023-04-03T16:42:02.387Z,38.08
2023-04-03T16:44:30.260Z,39.46
2023-04-03T16:46:57.968Z,36.93
2023-04-03T16:49:26.135Z,41.17
2023-04-03T16:51:53.933Z,39.22
2023-04-03T16:54:21.733Z,39.84
2023-04-03T16:56:50.834Z,42.19
2023-04-03T16:59:52.243Z,37.62
2023-04-03T17:02:19.955Z,38.24
2023-04-03T17:04:48.623Z,38.01
2023-04-03T17:07:17.279Z,37.11
2023-04-03T17:09:45.149Z,36.89
2023-04-03T17:12:12.931Z,37.10
2023-04-03T17:14:41.190Z,37.52
2023-04-03T17:17:11.031Z,36.69
2023-04-03T17:19:39.807Z,36.83
2023-04-03T17:22:08.861Z,37.45
2023-04-03T17:24:36.919Z,37.54
2023-04-03T17:27:05.525Z,36.25
2023-04-03T17:29:33.265Z,37.72
2023-04-03T17:32:01.082Z,36.96
2023-04-03T17:34:30.228Z,37.36
2023-04-03T17:36:58.049Z,36.52
2023-04-03T17:39:25.909Z,37.84
2023-04-03T17:41:55.026Z,37.17
2023-04-03T17:44:22.921Z,36.93
2023-04-03T17:46:50.724Z,36.87
2023-04-03T17:49:20.518Z,36.82
2023-04-03T17:51:49.950Z,37.63
2023-04-03T17:54:17.858Z,37.14
2023-04-03T17:56:48.239Z,37.35
2023-04-03T17:59:16.636Z,36.86
2023-04-03T18:01:46.660Z,36.92
2023-04-03T18:04:15.340Z,37.43
2023-04-03T18:06:46.208Z,37.45
2023-04-03T18:09:17.282Z,37.87
2023-04-03T18:11:45.670Z,37.03
2023-04-03T18:14:14.484Z,37.46
2023-04-03T18:16:42.320Z,37.81
2023-04-03T18:19:21.151Z,37.38
2023-04-03T18:21:50.295Z,37.62
2023-04-03T18:24:21.401Z,37.42
2023-04-03T18:26:52.127Z,38.12
2023-04-03T18:29:20.129Z,38.33
2023-04-03T18:31:50.683Z,38.12
2023-04-03T18:34:18.634Z,37.85
2023-04-03T18:36:46.567Z,38.01
2023-04-03T18:39:14.379Z,37.94
2023-04-03T18:41:43.803Z,38.42
2023-04-03T18:44:14.284Z,38.57
2023-04-03T18:46:42.363Z,38.38
2023-04-03T18:49:10.522Z,39.06
2023-04-03T18:51:39.592Z,39.38
2023-04-03T18:54:09.724Z,40.11
2023-04-03T18:56:37.747Z,39.60
2023-04-03T18:59:06.930Z,40.88
2023-04-03T19:01:35.180Z,39.93
2023-04-03T19:04:03.234Z,41.08
2023-04-03T19:06:30.983Z,40.93
2023-04-03T19:08:59.643Z,41.23
2023-04-03T19:11:29.652Z,41.69
2023-04-03T19:14:14.366Z,42.75
2023-04-03T19:16:44.660Z,42.47
2023-04-03T19:19:12.714Z,42.26
2023-04-03T19:21:42.064Z,42.06
2023-04-03T19:24:10.605Z,42.80
2023-04-03T19:26:38.419Z,42.70
2023-04-03T19:29:06.489Z,43.10
2023-04-03T19:31:35.110Z,42.89
2023-04-03T19:34:05.042Z,43.21
2023-04-03T19:36:33.927Z,43.56
2023-04-03T19:39:01.736Z,43.94
2023-04-03T19:41:32.219Z,44.27
2023-04-03T19:43:59.983Z,43.87
2023-04-03T19:46:29.284Z,44.19
2023-04-03T19:48:57.214Z,43.98
2023-04-03T19:51:26.569Z,44.39
2023-04-03T19:53:54.381Z,44.32
2023-04-03T19:56:23.432Z,43.95
2023-04-03T19:58:54.103Z,44.62
2023-04-03T20:01:23.728Z,44.21
2023-04-03T20:03:51.869Z,44.79
2023-04-03T20:06:19.683Z,44.97
2023-04-03T20:08:49.248Z,45.12
2023-04-03T20:11:16.973Z,44.82
2023-04-03T20:13:44.653Z,44.63
2023-04-03T20:16:12.633Z,44.44
2023-04-03T20:18:42.087Z,44.96
2023-04-03T20:21:10.783Z,45.45
2023-04-03T20:23:38.763Z,45.91
2023-04-03T20:26:14.936Z,44.56
2023-04-03T20:28:43.653Z,44.88
2023-04-03T20:31:12.713Z,44.97
2023-04-03T20:33:40.543Z,45.46
2023-04-03T20:36:09.058Z,45.67
2023-04-03T20:38:36.745Z,45.90
2023-04-03T20:41:04.531Z,45.10
2023-04-03T20:43:34.202Z,45.60
2023-04-03T20:46:02.555Z,45.13
2023-04-03T20:48:31.187Z,44.86
2023-04-03T20:50:59.204Z,44.62
2023-04-03T20:53:27.233Z,44.58
2023-04-03T20:55:59.862Z,44.54
2023-04-03T20:58:29.805Z,44.86
2023-04-03T21:00:58.982Z,44.94
2023-04-03T21:03:28.285Z,45.61
2023-04-03T21:06:00.215Z,46.15
2023-04-03T21:09:05.828Z,46.37
2023-04-03T21:12:11.863Z,45.70
2023-04-03T21:15:17.104Z,47.04
2023-04-03T21:18:06.486Z,46.69
2023-04-03T21:20:34.272Z,46.58
2023-04-03T21:23:02.358Z,46.48
2023-04-03T21:25:30.301Z,46.99
2023-04-03T21:27:58.152Z,46.62
2023-04-03T21:30:25.988Z,47.30
2023-04-03T21:32:55.286Z,47.51
2023-04-03T21:35:23.662Z,47.99
2023-04-03T21:37:51.320Z,46.97
2023-04-03T21:40:19.072Z,45.96
2023-04-03T21:42:46.854Z,46.06
2023-04-03T21:45:16.009Z,46.71
2023-04-03T21:47:44.746Z,46.97
2023-04-03T21:50:14.279Z,47.41
2023-04-03T21:52:42.681Z,47.14
2023-04-03T21:55:11.234Z,46.99
2023-04-03T21:57:38.971Z,47.99
2023-04-03T22:00:10.706Z,47.67
2023-04-03T22:02:40.889Z,47.57
2023-04-03T22:05:09.106Z,46.89
2023-04-03T22:07:38.334Z,46.99
2023-04-03T22:10:07.315Z,47.11
2023-04-03T22:12:35.084Z,46.78
2023-04-03T22:15:03.161Z,47.23
2023-04-03T22:17:31.517Z,47.14
2023-04-03T22:19:59.280Z,47.08
2023-04-03T22:22:27.164Z,47.79
2023-04-03T22:24:56.957Z,47.89
2023-04-03T22:27:24.737Z,47.64
2023-04-03T22:29:52.450Z,47.77
2023-04-03T22:32:20.192Z,47.43
2023-04-03T22:34:47.920Z,47.82
2023-04-03T22:37:15.751Z,48.25
2023-04-03T22:39:43.503Z,48.04
2023-04-03T22:42:12.576Z,48.24
2023-04-03T22:44:40.287Z,48.30
2023-04-03T22:47:08.116Z,48.32
2023-04-03T22:49:35.801Z,48.31
2023-04-03T22:52:03.470Z,48.36
2023-04-03T22:54:31.210Z,48.56
2023-04-03T22:56:59.017Z,49.23
2023-04-03T22:59:29.335Z,48.99
2023-04-03T23:01:57.631Z,48.93
2023-04-03T23:04:25.441Z,49.47
2023-04-03T23:06:53.084Z,49.70
2023-04-03T23:09:21.289Z,49.70
2023-04-03T23:11:49.009Z,49.87
2023-04-03T23:14:16.682Z,49.71
2023-04-03T23:16:46.771Z,50.00
2023-04-03T23:19:14.483Z,50.05
2023-04-03T23:21:42.155Z,50.34
2023-04-03T23:24:09.871Z,50.23
2023-04-03T23:26:37.560Z,50.39
2023-04-03T23:29:05.608Z,50.78
2023-04-03T23:31:33.492Z,50.71
2023-04-03T23:34:02.530Z,50.63
2023-04-03T23:36:30.653Z,50.95
2023-04-03T23:38:58.351Z,51.05
2023-04-03T23:41:26.082Z,51.26
2023-04-03T23:43:53.950Z,51.38
2023-04-03T23:46:21.713Z,51.37
2023-04-03T23:48:49.487Z,51.79
2023-04-03T23:51:18.574Z,51.87
2023-04-03T23:53:46.243Z,51.88
2023-04-03T23:56:13.913Z,51.88
2023-04-03T23:58:41.587Z,51.94
